sensor_id;sensor_type;location;lat;lon;timestamp;P1;durP1;ratioP1;P2;durP2;ratioP2
74363;SDS011;62797;49.740;10.154;2023-06-14T00:01:50;9.83;;;6.33;;
74363;SDS011;62797;49.740;10.154;2023-06-14T00:04:16;10.30;;;6.70;;
74363;SDS011;62797;49.740;10.154;2023-06-14T00:06:42;13.70;;;5.97;;
74363;SDS011;62797;49.740;10.154;2023-06-14T00:09:12;9.15;;;6.53;;
74363;SDS011;62797;49.740;10.154;2023-06-14T00:11:41;10.40;;;5.60;;
74363;SDS011;62797;49.740;10.154;2023-06-14T00:14:07;9.38;;;6.30;;
74363;SDS011;62797;49.740;10.154;2023-06-14T00:16:33;12.40;;;7.82;;
74363;SDS011;62797;49.740;10.154;2023-06-14T00:19:00;10.82;;;6.63;;
74363;SDS011;62797;49.740;10.154;2023-06-14T00:21:29;12.90;;;6.47;;
74363;SDS011;62797;49.740;10.154;2023-06-14T00:23:55;8.50;;;5.97;;
74363;SDS011;62797;49.740;10.154;2023-06-14T00:26:21;9.73;;;5.68;;
74363;SDS011;62797;49.740;10.154;2023-06-14T00:28:46;10.80;;;6.10;;
74363;SDS011;62797;49.740;10.154;2023-06-14T00:31:12;9.17;;;5.73;;
74363;SDS011;62797;49.740;10.154;2023-06-14T00:33:38;12.27;;;6.17;;
74363;SDS011;62797;49.740;10.154;2023-06-14T00:36:04;11.32;;;6.70;;
74363;SDS011;62797;49.740;10.154;2023-06-14T00:38:29;11.10;;;6.32;;
74363;SDS011;62797;49.740;10.154;2023-06-14T00:40:55;12.23;;;6.67;;
74363;SDS011;62797;49.740;10.154;2023-06-14T00:43:21;14.90;;;7.13;;
74363;SDS011;62797;49.740;10.154;2023-06-14T00:45:46;9.43;;;5.83;;
74363;SDS011;62797;49.740;10.154;2023-06-14T00:48:14;7.57;;;5.78;;
74363;SDS011;62797;49.740;10.154;2023-06-14T00:50:42;9.55;;;6.38;;
74363;SDS011;62797;49.740;10.154;2023-06-14T00:53:11;10.05;;;5.72;;
74363;SDS011;62797;49.740;10.154;2023-06-14T00:55:37;10.20;;;6.28;;
74363;SDS011;62797;49.740;10.154;2023-06-14T00:58:03;10.48;;;6.82;;
74363;SDS011;62797;49.740;10.154;2023-06-14T01:00:29;15.80;;;6.80;;
74363;SDS011;62797;49.740;10.154;2023-06-14T01:02:55;9.67;;;6.20;;
74363;SDS011;62797;49.740;10.154;2023-06-14T01:05:21;16.25;;;6.00;;
74363;SDS011;62797;49.740;10.154;2023-06-14T01:13:34;10.02;;;6.10;;
74363;SDS011;62797;49.740;10.154;2023-06-14T01:16:02;8.25;;;6.20;;
74363;SDS011;62797;49.740;10.154;2023-06-14T01:18:29;6.65;;;5.82;;
74363;SDS011;62797;49.740;10.154;2023-06-14T01:20:58;14.38;;;6.40;;
74363;SDS011;62797;49.740;10.154;2023-06-14T01:23:24;10.15;;;6.93;;
74363;SDS011;62797;49.740;10.154;2023-06-14T01:25:51;10.68;;;6.93;;
74363;SDS011;62797;49.740;10.154;2023-06-14T01:28:18;10.80;;;6.82;;
74363;SDS011;62797;49.740;10.154;2023-06-14T01:30:46;10.77;;;6.53;;
74363;SDS011;62797;49.740;10.154;2023-06-14T01:33:15;12.18;;;6.47;;
74363;SDS011;62797;49.740;10.154;2023-06-14T01:35:45;9.18;;;6.43;;
74363;SDS011;62797;49.740;10.154;2023-06-14T01:38:13;10.05;;;6.05;;
74363;SDS011;62797;49.740;10.154;2023-06-14T01:40:43;18.05;;;6.90;;
74363;SDS011;62797;49.740;10.154;2023-06-14T01:43:10;8.30;;;5.53;;
74363;SDS011;62797;49.740;10.154;2023-06-14T01:45:38;9.20;;;5.32;;
74363;SDS011;62797;49.740;10.154;2023-06-14T01:48:06;12.48;;;6.45;;
74363;SDS011;62797;49.740;10.154;2023-06-14T01:50:33;9.50;;;6.40;;
74363;SDS011;62797;49.740;10.154;2023-06-14T01:52:59;10.30;;;7.03;;
74363;SDS011;62797;49.740;10.154;2023-06-14T01:55:25;9.30;;;6.17;;
74363;SDS011;62797;49.740;10.154;2023-06-14T01:57:51;8.23;;;5.50;;
74363;SDS011;62797;49.740;10.154;2023-06-14T02:02:44;11.93;;;6.40;;
74363;SDS011;62797;49.740;10.154;2023-06-14T02:07:40;8.27;;;5.90;;
74363;SDS011;62797;49.740;10.154;2023-06-14T02:10:06;9.27;;;6.10;;
74363;SDS011;62797;49.740;10.154;2023-06-14T02:12:32;9.50;;;6.03;;
74363;SDS011;62797;49.740;10.154;2023-06-14T02:14:58;11.37;;;5.93;;
74363;SDS011;62797;49.740;10.154;2023-06-14T02:17:23;10.53;;;6.13;;
74363;SDS011;62797;49.740;10.154;2023-06-14T02:19:50;10.13;;;6.55;;
74363;SDS011;62797;49.740;10.154;2023-06-14T02:22:15;9.95;;;6.57;;
74363;SDS011;62797;49.740;10.154;2023-06-14T02:24:42;13.02;;;7.05;;
74363;SDS011;62797;49.740;10.154;2023-06-14T02:27:09;9.68;;;6.63;;
74363;SDS011;62797;49.740;10.154;2023-06-14T02:29:37;8.07;;;6.22;;
74363;SDS011;62797;49.740;10.154;2023-06-14T02:32:06;11.83;;;6.77;;
74363;SDS011;62797;49.740;10.154;2023-06-14T02:34:35;13.90;;;7.68;;
74363;SDS011;62797;49.740;10.154;2023-06-14T02:37:01;8.88;;;6.45;;
74363;SDS011;62797;49.740;10.154;2023-06-14T02:39:30;17.30;;;6.32;;
74363;SDS011;62797;49.740;10.154;2023-06-14T02:41:55;11.80;;;6.40;;
74363;SDS011;62797;49.740;10.154;2023-06-14T02:44:25;8.13;;;5.95;;
74363;SDS011;62797;49.740;10.154;2023-06-14T02:46:55;9.45;;;6.57;;
74363;SDS011;62797;49.740;10.154;2023-06-14T02:49:22;10.30;;;5.75;;
74363;SDS011;62797;49.740;10.154;2023-06-14T02:51:48;11.05;;;7.10;;
74363;SDS011;62797;49.740;10.154;2023-06-14T02:54:13;20.67;;;6.00;;
74363;SDS011;62797;49.740;10.154;2023-06-14T02:56:39;8.38;;;7.13;;
74363;SDS011;62797;49.740;10.154;2023-06-14T02:59:07;11.80;;;6.57;;
74363;SDS011;62797;49.740;10.154;2023-06-14T03:01:34;10.23;;;5.80;;
74363;SDS011;62797;49.740;10.154;2023-06-14T03:04:04;9.50;;;6.93;;
74363;SDS011;62797;49.740;10.154;2023-06-14T03:06:31;9.90;;;7.15;;
74363;SDS011;62797;49.740;10.154;2023-06-14T03:08:59;13.60;;;6.82;;
74363;SDS011;62797;49.740;10.154;2023-06-14T03:11:29;15.70;;;6.78;;
74363;SDS011;62797;49.740;10.154;2023-06-14T03:13:56;11.65;;;6.85;;
74363;SDS011;62797;49.740;10.154;2023-06-14T03:16:25;11.80;;;7.47;;
74363;SDS011;62797;49.740;10.154;2023-06-14T03:18:51;9.45;;;6.35;;
74363;SDS011;62797;49.740;10.154;2023-06-14T03:21:20;10.68;;;7.70;;
74363;SDS011;62797;49.740;10.154;2023-06-14T03:23:47;9.02;;;5.95;;
74363;SDS011;62797;49.740;10.154;2023-06-14T03:26:14;13.07;;;7.90;;
74363;SDS011;62797;49.740;10.154;2023-06-14T03:28:45;7.75;;;6.05;;
74363;SDS011;62797;49.740;10.154;2023-06-14T03:31:11;8.43;;;6.00;;
74363;SDS011;62797;49.740;10.154;2023-06-14T03:33:38;21.52;;;7.38;;
74363;SDS011;62797;49.740;10.154;2023-06-14T03:36:04;10.52;;;7.13;;
74363;SDS011;62797;49.740;10.154;2023-06-14T03:38:31;11.95;;;6.90;;
74363;SDS011;62797;49.740;10.154;2023-06-14T03:40:57;12.65;;;6.28;;
74363;SDS011;62797;49.740;10.154;2023-06-14T03:43:23;9.37;;;6.33;;
74363;SDS011;62797;49.740;10.154;2023-06-14T03:45:49;11.07;;;6.93;;
74363;SDS011;62797;49.740;10.154;2023-06-14T03:48:16;14.63;;;7.55;;
74363;SDS011;62797;49.740;10.154;2023-06-14T03:50:42;11.13;;;6.63;;
74363;SDS011;62797;49.740;10.154;2023-06-14T03:53:09;13.40;;;7.72;;
74363;SDS011;62797;49.740;10.154;2023-06-14T03:55:39;12.00;;;7.20;;
74363;SDS011;62797;49.740;10.154;2023-06-14T03:58:05;11.10;;;7.25;;
74363;SDS011;62797;49.740;10.154;2023-06-14T04:00:31;10.80;;;8.27;;
74363;SDS011;62797;49.740;10.154;2023-06-14T04:02:57;9.70;;;7.70;;
74363;SDS011;62797;49.740;10.154;2023-06-14T04:05:24;13.17;;;8.63;;
74363;SDS011;62797;49.740;10.154;2023-06-14T04:07:52;10.35;;;7.80;;
74363;SDS011;62797;49.740;10.154;2023-06-14T04:10:20;11.65;;;8.18;;
74363;SDS011;62797;49.740;10.154;2023-06-14T04:12:46;10.30;;;7.37;;
74363;SDS011;62797;49.740;10.154;2023-06-14T04:15:12;10.10;;;6.47;;
74363;SDS011;62797;49.740;10.154;2023-06-14T04:20:05;16.75;;;6.93;;
74363;SDS011;62797;49.740;10.154;2023-06-14T04:22:34;14.38;;;7.13;;
74363;SDS011;62797;49.740;10.154;2023-06-14T04:25:02;20.65;;;7.03;;
74363;SDS011;62797;49.740;10.154;2023-06-14T04:27:29;12.00;;;6.65;;
74363;SDS011;62797;49.740;10.154;2023-06-14T04:29:58;13.55;;;7.75;;
74363;SDS011;62797;49.740;10.154;2023-06-14T04:32:31;13.48;;;6.78;;
74363;SDS011;62797;49.740;10.154;2023-06-14T04:35:04;19.05;;;6.22;;
74363;SDS011;62797;49.740;10.154;2023-06-14T04:37:32;12.02;;;8.35;;
74363;SDS011;62797;49.740;10.154;2023-06-14T04:39:58;12.82;;;7.35;;
74363;SDS011;62797;49.740;10.154;2023-06-14T04:42:24;11.25;;;7.53;;
74363;SDS011;62797;49.740;10.154;2023-06-14T04:44:55;11.90;;;6.72;;
74363;SDS011;62797;49.740;10.154;2023-06-14T04:47:22;15.00;;;7.55;;
74363;SDS011;62797;49.740;10.154;2023-06-14T04:49:50;11.77;;;7.03;;
74363;SDS011;62797;49.740;10.154;2023-06-14T04:52:20;10.57;;;7.30;;
74363;SDS011;62797;49.740;10.154;2023-06-14T04:54:46;13.10;;;7.18;;
74363;SDS011;62797;49.740;10.154;2023-06-14T04:57:16;10.95;;;6.85;;
74363;SDS011;62797;49.740;10.154;2023-06-14T04:59:44;11.27;;;6.55;;
74363;SDS011;62797;49.740;10.154;2023-06-14T05:02:10;19.27;;;7.13;;
74363;SDS011;62797;49.740;10.154;2023-06-14T05:04:36;14.55;;;6.63;;
74363;SDS011;62797;49.740;10.154;2023-06-14T05:07:08;8.52;;;6.43;;
74363;SDS011;62797;49.740;10.154;2023-06-14T05:09:35;14.27;;;7.45;;
74363;SDS011;62797;49.740;10.154;2023-06-14T05:12:01;14.43;;;7.43;;
74363;SDS011;62797;49.740;10.154;2023-06-14T05:14:28;11.82;;;6.25;;
74363;SDS011;62797;49.740;10.154;2023-06-14T05:16:54;12.63;;;6.68;;
74363;SDS011;62797;49.740;10.154;2023-06-14T05:19:20;15.03;;;6.77;;
74363;SDS011;62797;49.740;10.154;2023-06-14T05:21:47;11.53;;;7.33;;
74363;SDS011;62797;49.740;10.154;2023-06-14T05:24:13;19.77;;;7.25;;
74363;SDS011;62797;49.740;10.154;2023-06-14T05:26:43;12.38;;;5.75;;
74363;SDS011;62797;49.740;10.154;2023-06-14T05:29:08;14.13;;;7.30;;
74363;SDS011;62797;49.740;10.154;2023-06-14T05:31:34;12.37;;;7.27;;
74363;SDS011;62797;49.740;10.154;2023-06-14T05:34:00;9.50;;;6.28;;
74363;SDS011;62797;49.740;10.154;2023-06-14T05:36:26;16.57;;;7.37;;
74363;SDS011;62797;49.740;10.154;2023-06-14T05:38:53;15.73;;;7.32;;
74363;SDS011;62797;49.740;10.154;2023-06-14T05:41:24;10.07;;;6.63;;
74363;SDS011;62797;49.740;10.154;2023-06-14T05:43:51;11.63;;;6.85;;
74363;SDS011;62797;49.740;10.154;2023-06-14T05:46:17;7.85;;;6.32;;
74363;SDS011;62797;49.740;10.154;2023-06-14T05:48:47;13.50;;;6.55;;
74363;SDS011;62797;49.740;10.154;2023-06-14T05:51:13;8.75;;;6.90;;
74363;SDS011;62797;49.740;10.154;2023-06-14T05:53:39;10.55;;;6.85;;
74363;SDS011;62797;49.740;10.154;2023-06-14T05:56:05;14.43;;;7.27;;
74363;SDS011;62797;49.740;10.154;2023-06-14T05:58:31;9.37;;;7.17;;
74363;SDS011;62797;49.740;10.154;2023-06-14T06:00:56;11.80;;;6.57;;
74363;SDS011;62797;49.740;10.154;2023-06-14T06:03:22;11.13;;;7.57;;
74363;SDS011;62797;49.740;10.154;2023-06-14T06:05:48;10.63;;;5.50;;
74363;SDS011;62797;49.740;10.154;2023-06-14T06:08:14;10.60;;;6.57;;
74363;SDS011;62797;49.740;10.154;2023-06-14T06:10:41;20.35;;;7.50;;
74363;SDS011;62797;49.740;10.154;2023-06-14T06:13:07;8.85;;;6.43;;
74363;SDS011;62797;49.740;10.154;2023-06-14T06:15:33;17.60;;;7.63;;
74363;SDS011;62797;49.740;10.154;2023-06-14T06:17:59;12.80;;;6.00;;
74363;SDS011;62797;49.740;10.154;2023-06-14T06:20:24;8.80;;;6.50;;
74363;SDS011;62797;49.740;10.154;2023-06-14T06:22:55;10.48;;;6.40;;
74363;SDS011;62797;49.740;10.154;2023-06-14T06:25:20;7.73;;;6.20;;
74363;SDS011;62797;49.740;10.154;2023-06-14T06:27:50;9.63;;;6.63;;
74363;SDS011;62797;49.740;10.154;2023-06-14T06:30:16;11.55;;;6.82;;
74363;SDS011;62797;49.740;10.154;2023-06-14T06:32:41;11.50;;;6.97;;
74363;SDS011;62797;49.740;10.154;2023-06-14T06:35:07;11.07;;;6.40;;
74363;SDS011;62797;49.740;10.154;2023-06-14T06:37:36;11.35;;;6.50;;
74363;SDS011;62797;49.740;10.154;2023-06-14T06:40:02;9.85;;;5.85;;
74363;SDS011;62797;49.740;10.154;2023-06-14T06:42:31;9.40;;;6.72;;
74363;SDS011;62797;49.740;10.154;2023-06-14T06:45:01;9.48;;;6.32;;
74363;SDS011;62797;49.740;10.154;2023-06-14T06:47:27;12.73;;;7.30;;
74363;SDS011;62797;49.740;10.154;2023-06-14T06:49:53;9.43;;;6.00;;
74363;SDS011;62797;49.740;10.154;2023-06-14T06:52:19;11.95;;;6.45;;
74363;SDS011;62797;49.740;10.154;2023-06-14T06:54:45;8.23;;;5.47;;
74363;SDS011;62797;49.740;10.154;2023-06-14T06:57:13;7.68;;;6.25;;
74363;SDS011;62797;49.740;10.154;2023-06-14T06:59:42;7.20;;;5.05;;
74363;SDS011;62797;49.740;10.154;2023-06-14T07:02:10;9.23;;;5.70;;
74363;SDS011;62797;49.740;10.154;2023-06-14T07:04:36;8.88;;;5.65;;
74363;SDS011;62797;49.740;10.154;2023-06-14T07:07:05;12.63;;;5.65;;
74363;SDS011;62797;49.740;10.154;2023-06-14T07:09:31;7.90;;;5.03;;
74363;SDS011;62797;49.740;10.154;2023-06-14T07:11:57;8.48;;;6.10;;
74363;SDS011;62797;49.740;10.154;2023-06-14T07:14:22;7.67;;;5.93;;
74363;SDS011;62797;49.740;10.154;2023-06-14T07:16:49;10.73;;;6.18;;
74363;SDS011;62797;49.740;10.154;2023-06-14T07:19:15;9.57;;;5.40;;
74363;SDS011;62797;49.740;10.154;2023-06-14T07:21:41;9.70;;;5.47;;
74363;SDS011;62797;49.740;10.154;2023-06-14T07:24:07;12.30;;;7.15;;
74363;SDS011;62797;49.740;10.154;2023-06-14T07:26:33;9.63;;;6.28;;
74363;SDS011;62797;49.740;10.154;2023-06-14T07:29:01;8.73;;;5.97;;
74363;SDS011;62797;49.740;10.154;2023-06-14T07:33:53;11.23;;;5.63;;
74363;SDS011;62797;49.740;10.154;2023-06-14T07:36:19;7.60;;;5.15;;
74363;SDS011;62797;49.740;10.154;2023-06-14T07:38:45;9.38;;;6.43;;
74363;SDS011;62797;49.740;10.154;2023-06-14T07:41:15;12.65;;;6.00;;
74363;SDS011;62797;49.740;10.154;2023-06-14T07:43:42;9.95;;;6.25;;
74363;SDS011;62797;49.740;10.154;2023-06-14T07:46:11;7.50;;;5.88;;
74363;SDS011;62797;49.740;10.154;2023-06-14T07:48:37;14.55;;;5.70;;
74363;SDS011;62797;49.740;10.154;2023-06-14T07:51:02;6.47;;;4.68;;
74363;SDS011;62797;49.740;10.154;2023-06-14T07:53:29;14.82;;;5.72;;
74363;SDS011;62797;49.740;10.154;2023-06-14T07:55:56;8.32;;;5.45;;
74363;SDS011;62797;49.740;10.154;2023-06-14T08:00:47;7.63;;;5.18;;
74363;SDS011;62797;49.740;10.154;2023-06-14T08:03:14;8.55;;;5.03;;
74363;SDS011;62797;49.740;10.154;2023-06-14T08:05:49;10.15;;;5.45;;
74363;SDS011;62797;49.740;10.154;2023-06-14T08:08:15;18.27;;;8.38;;
74363;SDS011;62797;49.740;10.154;2023-06-14T08:10:41;11.32;;;5.35;;
74363;SDS011;62797;49.740;10.154;2023-06-14T08:13:07;8.15;;;5.57;;
74363;SDS011;62797;49.740;10.154;2023-06-14T08:15:34;12.93;;;6.30;;
74363;SDS011;62797;49.740;10.154;2023-06-14T08:18:00;18.85;;;6.55;;
74363;SDS011;62797;49.740;10.154;2023-06-14T08:20:27;9.35;;;4.95;;
74363;SDS011;62797;49.740;10.154;2023-06-14T08:22:53;8.25;;;5.43;;
74363;SDS011;62797;49.740;10.154;2023-06-14T08:25:21;10.75;;;5.20;;
74363;SDS011;62797;49.740;10.154;2023-06-14T08:27:48;12.20;;;5.75;;
74363;SDS011;62797;49.740;10.154;2023-06-14T08:30:15;7.18;;;4.53;;
74363;SDS011;62797;49.740;10.154;2023-06-14T08:32:42;8.90;;;4.90;;
74363;SDS011;62797;49.740;10.154;2023-06-14T08:35:08;7.47;;;4.53;;
74363;SDS011;62797;49.740;10.154;2023-06-14T08:37:38;10.02;;;4.90;;
74363;SDS011;62797;49.740;10.154;2023-06-14T08:40:20;13.82;;;5.40;;
74363;SDS011;62797;49.740;10.154;2023-06-14T08:42:48;9.40;;;4.90;;
74363;SDS011;62797;49.740;10.154;2023-06-14T08:45:19;10.27;;;4.95;;
74363;SDS011;62797;49.740;10.154;2023-06-14T08:47:47;7.25;;;4.68;;
74363;SDS011;62797;49.740;10.154;2023-06-14T08:50:23;5.63;;;4.22;;
74363;SDS011;62797;49.740;10.154;2023-06-14T08:52:56;13.88;;;4.13;;
74363;SDS011;62797;49.740;10.154;2023-06-14T08:55:31;6.00;;;4.82;;
74363;SDS011;62797;49.740;10.154;2023-06-14T08:58:03;8.15;;;5.05;;
74363;SDS011;62797;49.740;10.154;2023-06-14T09:00:34;8.35;;;4.85;;
74363;SDS011;62797;49.740;10.154;2023-06-14T09:03:03;9.35;;;5.70;;
74363;SDS011;62797;49.740;10.154;2023-06-14T09:05:30;10.40;;;5.20;;
74363;SDS011;62797;49.740;10.154;2023-06-14T09:07:59;7.78;;;4.55;;
74363;SDS011;62797;49.740;10.154;2023-06-14T09:10:25;8.10;;;4.93;;
74363;SDS011;62797;49.740;10.154;2023-06-14T09:12:53;7.95;;;4.57;;
74363;SDS011;62797;49.740;10.154;2023-06-14T09:15:20;6.78;;;4.75;;
74363;SDS011;62797;49.740;10.154;2023-06-14T09:17:46;8.75;;;5.28;;
74363;SDS011;62797;49.740;10.154;2023-06-14T09:20:13;6.05;;;4.97;;
74363;SDS011;62797;49.740;10.154;2023-06-14T09:22:42;9.93;;;5.13;;
74363;SDS011;62797;49.740;10.154;2023-06-14T09:25:08;11.20;;;4.97;;
74363;SDS011;62797;49.740;10.154;2023-06-14T09:27:34;9.02;;;4.90;;
74363;SDS011;62797;49.740;10.154;2023-06-14T09:30:05;5.00;;;4.10;;
74363;SDS011;62797;49.740;10.154;2023-06-14T09:32:35;11.85;;;4.50;;
74363;SDS011;62797;49.740;10.154;2023-06-14T09:35:02;8.13;;;4.30;;
74363;SDS011;62797;49.740;10.154;2023-06-14T09:37:29;16.60;;;4.78;;
74363;SDS011;62797;49.740;10.154;2023-06-14T09:39:56;6.60;;;4.15;;
74363;SDS011;62797;49.740;10.154;2023-06-14T09:42:22;6.50;;;4.38;;
74363;SDS011;62797;49.740;10.154;2023-06-14T09:44:51;6.55;;;3.92;;
74363;SDS011;62797;49.740;10.154;2023-06-14T09:47:19;7.82;;;4.57;;
74363;SDS011;62797;49.740;10.154;2023-06-14T09:49:45;7.57;;;4.22;;
74363;SDS011;62797;49.740;10.154;2023-06-14T09:52:13;11.35;;;4.95;;
74363;SDS011;62797;49.740;10.154;2023-06-14T09:54:41;10.45;;;4.88;;
74363;SDS011;62797;49.740;10.154;2023-06-14T09:57:09;7.38;;;4.10;;
74363;SDS011;62797;49.740;10.154;2023-06-14T09:59:36;10.18;;;4.55;;
74363;SDS011;62797;49.740;10.154;2023-06-14T10:02:34;6.28;;;4.15;;
74363;SDS011;62797;49.740;10.154;2023-06-14T10:05:07;5.45;;;4.35;;
74363;SDS011;62797;49.740;10.154;2023-06-14T10:07:40;9.48;;;4.60;;
74363;SDS011;62797;49.740;10.154;2023-06-14T10:12:38;10.18;;;4.00;;
74363;SDS011;62797;49.740;10.154;2023-06-14T10:17:33;6.05;;;4.10;;
74363;SDS011;62797;49.740;10.154;2023-06-14T10:23:15;8.88;;;4.07;;
74363;SDS011;62797;49.740;10.154;2023-06-14T10:25:43;5.00;;;3.40;;
74363;SDS011;62797;49.740;10.154;2023-06-14T10:31:01;4.07;;;3.58;;
74363;SDS011;62797;49.740;10.154;2023-06-14T10:33:27;3.75;;;3.38;;
74363;SDS011;62797;49.740;10.154;2023-06-14T10:39:06;5.60;;;3.70;;
74363;SDS011;62797;49.740;10.154;2023-06-14T10:41:36;4.90;;;3.30;;
74363;SDS011;62797;49.740;10.154;2023-06-14T10:46:38;5.85;;;3.65;;
74363;SDS011;62797;49.740;10.154;2023-06-14T10:49:16;7.88;;;3.97;;
74363;SDS011;62797;49.740;10.154;2023-06-14T10:51:51;7.93;;;2.97;;
74363;SDS011;62797;49.740;10.154;2023-06-14T10:54:21;5.18;;;3.63;;
74363;SDS011;62797;49.740;10.154;2023-06-14T10:56:49;5.25;;;3.10;;
74363;SDS011;62797;49.740;10.154;2023-06-14T10:59:16;6.15;;;3.30;;
74363;SDS011;62797;49.740;10.154;2023-06-14T11:04:53;13.95;;;3.50;;
74363;SDS011;62797;49.740;10.154;2023-06-14T11:07:34;6.43;;;3.38;;
74363;SDS011;62797;49.740;10.154;2023-06-14T11:12:45;10.40;;;3.67;;
74363;SDS011;62797;49.740;10.154;2023-06-14T11:15:13;5.60;;;3.42;;
74363;SDS011;62797;49.740;10.154;2023-06-14T11:17:39;7.90;;;3.08;;
74363;SDS011;62797;49.740;10.154;2023-06-14T11:20:16;4.50;;;2.83;;
74363;SDS011;62797;49.740;10.154;2023-06-14T11:22:42;6.65;;;3.20;;
74363;SDS011;62797;49.740;10.154;2023-06-14T11:25:09;6.05;;;3.30;;
74363;SDS011;62797;49.740;10.154;2023-06-14T11:27:35;7.40;;;3.83;;
74363;SDS011;62797;49.740;10.154;2023-06-14T11:30:01;8.88;;;4.00;;
74363;SDS011;62797;49.740;10.154;2023-06-14T11:32:27;4.80;;;3.35;;
74363;SDS011;62797;49.740;10.154;2023-06-14T11:34:53;8.73;;;3.90;;
74363;SDS011;62797;49.740;10.154;2023-06-14T11:37:19;9.05;;;4.57;;
74363;SDS011;62797;49.740;10.154;2023-06-14T11:39:45;4.25;;;3.20;;
74363;SDS011;62797;49.740;10.154;2023-06-14T11:42:17;4.75;;;3.30;;
74363;SDS011;62797;49.740;10.154;2023-06-14T11:44:45;4.05;;;3.22;;
74363;SDS011;62797;49.740;10.154;2023-06-14T11:47:12;4.57;;;3.05;;
74363;SDS011;62797;49.740;10.154;2023-06-14T11:49:37;5.47;;;3.20;;
74363;SDS011;62797;49.740;10.154;2023-06-14T11:52:03;5.35;;;3.13;;
74363;SDS011;62797;49.740;10.154;2023-06-14T11:54:31;3.80;;;3.08;;
74363;SDS011;62797;49.740;10.154;2023-06-14T11:56:57;6.18;;;3.20;;
74363;SDS011;62797;49.740;10.154;2023-06-14T12:01:49;7.60;;;3.40;;
74363;SDS011;62797;49.740;10.154;2023-06-14T12:04:22;3.58;;;3.22;;
74363;SDS011;62797;49.740;10.154;2023-06-14T12:06:57;7.95;;;4.13;;
74363;SDS011;62797;49.740;10.154;2023-06-14T12:12:24;5.43;;;3.55;;
74363;SDS011;62797;49.740;10.154;2023-06-14T12:14:51;5.82;;;3.33;;
74363;SDS011;62797;49.740;10.154;2023-06-14T12:17:17;5.63;;;3.90;;
74363;SDS011;62797;49.740;10.154;2023-06-14T12:19:44;9.68;;;3.85;;
74363;SDS011;62797;49.740;10.154;2023-06-14T12:22:14;4.75;;;3.30;;
74363;SDS011;62797;49.740;10.154;2023-06-14T12:24:43;4.80;;;2.97;;
74363;SDS011;62797;49.740;10.154;2023-06-14T12:27:10;6.72;;;2.70;;
74363;SDS011;62797;49.740;10.154;2023-06-14T12:29:40;6.78;;;2.92;;
74363;SDS011;62797;49.740;10.154;2023-06-14T12:32:09;4.28;;;2.90;;
74363;SDS011;62797;49.740;10.154;2023-06-14T12:37:01;5.57;;;3.72;;
74363;SDS011;62797;49.740;10.154;2023-06-14T12:39:28;9.60;;;3.55;;
74363;SDS011;62797;49.740;10.154;2023-06-14T12:41:55;6.68;;;4.03;;
74363;SDS011;62797;49.740;10.154;2023-06-14T12:44:20;6.25;;;3.35;;
74363;SDS011;62797;49.740;10.154;2023-06-14T12:46:46;4.60;;;3.45;;
74363;SDS011;62797;49.740;10.154;2023-06-14T12:49:12;4.35;;;2.90;;
74363;SDS011;62797;49.740;10.154;2023-06-14T12:51:38;4.47;;;3.30;;
74363;SDS011;62797;49.740;10.154;2023-06-14T12:54:04;7.93;;;3.20;;
74363;SDS011;62797;49.740;10.154;2023-06-14T12:56:30;5.72;;;2.78;;
74363;SDS011;62797;49.740;10.154;2023-06-14T12:58:56;8.10;;;3.00;;
74363;SDS011;62797;49.740;10.154;2023-06-14T13:01:21;6.65;;;3.40;;
74363;SDS011;62797;49.740;10.154;2023-06-14T13:03:47;3.72;;;3.03;;
74363;SDS011;62797;49.740;10.154;2023-06-14T13:06:14;3.35;;;3.05;;
74363;SDS011;62797;49.740;10.154;2023-06-14T13:08:40;5.57;;;2.90;;
74363;SDS011;62797;49.740;10.154;2023-06-14T13:11:06;5.30;;;3.83;;
74363;SDS011;62797;49.740;10.154;2023-06-14T13:13:32;4.55;;;3.10;;
74363;SDS011;62797;49.740;10.154;2023-06-14T13:15:58;3.60;;;3.22;;
74363;SDS011;62797;49.740;10.154;2023-06-14T13:18:23;3.92;;;2.85;;
74363;SDS011;62797;49.740;10.154;2023-06-14T13:20:50;3.28;;;2.60;;
74363;SDS011;62797;49.740;10.154;2023-06-14T13:23:15;6.28;;;2.58;;
74363;SDS011;62797;49.740;10.154;2023-06-14T13:28:07;5.43;;;2.92;;
74363;SDS011;62797;49.740;10.154;2023-06-14T13:33:00;5.18;;;2.70;;
74363;SDS011;62797;49.740;10.154;2023-06-14T13:35:26;7.25;;;3.35;;
74363;SDS011;62797;49.740;10.154;2023-06-14T13:37:52;3.53;;;2.92;;
74363;SDS011;62797;49.740;10.154;2023-06-14T13:40:18;6.75;;;2.67;;
74363;SDS011;62797;49.740;10.154;2023-06-14T13:42:46;6.22;;;3.47;;
74363;SDS011;62797;49.740;10.154;2023-06-14T13:45:12;2.85;;;2.38;;
74363;SDS011;62797;49.740;10.154;2023-06-14T13:50:03;3.03;;;2.22;;
74363;SDS011;62797;49.740;10.154;2023-06-14T13:54:55;5.70;;;3.20;;
74363;SDS011;62797;49.740;10.154;2023-06-14T13:57:21;6.82;;;2.83;;
74363;SDS011;62797;49.740;10.154;2023-06-14T13:59:47;3.85;;;2.63;;
74363;SDS011;62797;49.740;10.154;2023-06-14T14:02:14;6.50;;;2.67;;
74363;SDS011;62797;49.740;10.154;2023-06-14T14:04:39;6.88;;;2.85;;
74363;SDS011;62797;49.740;10.154;2023-06-14T14:07:06;3.78;;;2.10;;
74363;SDS011;62797;49.740;10.154;2023-06-14T14:09:32;7.72;;;2.65;;
74363;SDS011;62797;49.740;10.154;2023-06-14T14:11:59;3.28;;;2.67;;
74363;SDS011;62797;49.740;10.154;2023-06-14T14:14:26;4.13;;;2.70;;
74363;SDS011;62797;49.740;10.154;2023-06-14T14:16:53;7.75;;;2.83;;
74363;SDS011;62797;49.740;10.154;2023-06-14T14:19:20;6.13;;;2.70;;
74363;SDS011;62797;49.740;10.154;2023-06-14T14:21:46;7.32;;;2.65;;
74363;SDS011;62797;49.740;10.154;2023-06-14T14:24:11;3.85;;;2.70;;
74363;SDS011;62797;49.740;10.154;2023-06-14T14:29:03;5.00;;;2.67;;
74363;SDS011;62797;49.740;10.154;2023-06-14T14:31:29;5.57;;;3.35;;
74363;SDS011;62797;49.740;10.154;2023-06-14T14:33:55;7.88;;;3.30;;
74363;SDS011;62797;49.740;10.154;2023-06-14T14:36:21;4.07;;;2.88;;
74363;SDS011;62797;49.740;10.154;2023-06-14T14:38:46;3.70;;;2.40;;
74363;SDS011;62797;49.740;10.154;2023-06-14T14:41:12;4.00;;;2.83;;
74363;SDS011;62797;49.740;10.154;2023-06-14T14:43:38;3.40;;;2.70;;
74363;SDS011;62797;49.740;10.154;2023-06-14T14:46:04;2.80;;;2.30;;
74363;SDS011;62797;49.740;10.154;2023-06-14T14:48:30;4.72;;;3.13;;
74363;SDS011;62797;49.740;10.154;2023-06-14T14:50:56;7.28;;;2.78;;
74363;SDS011;62797;49.740;10.154;2023-06-14T14:53:21;4.60;;;3.00;;
74363;SDS011;62797;49.740;10.154;2023-06-14T14:55:47;7.47;;;2.80;;
74363;SDS011;62797;49.740;10.154;2023-06-14T14:58:13;4.13;;;2.72;;
74363;SDS011;62797;49.740;10.154;2023-06-14T15:00:43;5.18;;;2.92;;
74363;SDS011;62797;49.740;10.154;2023-06-14T15:03:09;5.80;;;2.95;;
74363;SDS011;62797;49.740;10.154;2023-06-14T15:05:35;3.42;;;2.88;;
74363;SDS011;62797;49.740;10.154;2023-06-14T15:08:02;5.22;;;2.53;;
74363;SDS011;62797;49.740;10.154;2023-06-14T15:10:28;3.20;;;2.30;;
74363;SDS011;62797;49.740;10.154;2023-06-14T15:15:21;7.20;;;2.60;;
74363;SDS011;62797;49.740;10.154;2023-06-14T15:17:47;3.95;;;2.75;;
74363;SDS011;62797;49.740;10.154;2023-06-14T15:20:13;5.93;;;2.80;;
74363;SDS011;62797;49.740;10.154;2023-06-14T15:22:40;3.97;;;2.75;;
74363;SDS011;62797;49.740;10.154;2023-06-14T15:25:06;7.82;;;3.63;;
74363;SDS011;62797;49.740;10.154;2023-06-14T15:27:32;3.42;;;2.53;;
74363;SDS011;62797;49.740;10.154;2023-06-14T15:29:57;5.35;;;3.00;;
74363;SDS011;62797;49.740;10.154;2023-06-14T15:32:23;4.25;;;3.15;;